KECG

Elizabeth City CG Air Station / Rgnl Airport

Elizabeth City, North Carolina, USA
METAR KECG 250054Z 13003KT 10SM CLR 22/17 A3016 RMK AO2 SLP214 T02170172
Observed Flight Rules
May-25 @ 00:54 UTC (23 minutes ago) Visual Flight Rules
Wind Visibility Clouds
130° at 3 knots 10 miles
  • Clear skies
Temperatures Readings
Current 22°C / 72°F
Dewpoint 17°C / 63°F
Humidity 73%
Altimeter 30.16" Hg
Pressure 1021.4 hPa
Elevation 11
METAR KECG 250054Z 13003KT 10SM CLR 22/17 A3016 RMK AO2 SLP214 T02170172
Observed Flight Rules
May-25 @ 00:54 UTC
(23 minutes ago)
VFR
Wind Visibility
130° at 3 knots 10 miles
Clouds
  • Clear skies
Temperature Dewpoint
22°C / 72°F 17°C / 63°F
Humidity Altimeter Pressure
73% 30.16" Hg 1021.4 hPa